Time,TemperatureF,DewpointF,PressureIn,WindDirection,WindDirectionDegrees,WindSpeedMPH,WindSpeedGustMPH,Humidity,HourlyPrecipIn,Conditions,Clouds,dailyrainin,SolarRadiationWatts/m^2,SoftwareType,DateUTC
2013-02-01 00:02:00,40.4,16.0,30.24,NW,318,0.0,1.0,38,0.00,,,0.00,0,weatherlink.com 1.10,2013-02-01 07:02:00,
2013-02-01 00:17:00,40.2,17.0,30.25,NW,318,0.0,0.0,39,0.00,,,0.00,0,weatherlink.com 1.10,2013-02-01 07:17:00,
2013-02-01 00:32:00,41.0,17.0,30.25,NW,318,0.0,1.0,38,0.00,,,0.00,0,weatherlink.com 1.10,2013-02-01 07:32:00,
2013-02-01 00:47:00,40.8,17.0,30.25,NW,318,0.0,0.0,39,0.00,,,0.00,0,weatherlink.com 1.10,2013-02-01 07:47:00,
2013-02-01 01:02:00,40.1,17.0,30.26,NW,318,0.0,0.0,40,0.00,,,0.00,0,weatherlink.com 1.10,2013-02-01 08:02:00,
2013-02-01 01:17:00,39.2,17.0,30.26,NW,318,0.0,0.0,41,0.00,,,0.00,0,weatherlink.com 1.10,2013-02-01 08:17:00,
2013-02-01 01:32:00,38.5,17.0,30.25,NW,318,0.0,0.0,42,0.00,,,0.00,0,weatherlink.com 1.10,2013-02-01 08:32:00,
2013-02-01 01:47:00,37.8,16.0,30.25,NW,318,0.0,0.0,42,0.00,,,0.00,0,weatherlink.com 1.10,2013-02-01 08:47:00,
2013-02-01 02:02:00,37.3,17.0,30.25,NW,318,0.0,0.0,43,0.00,,,0.00,0,weatherlink.com 1.10,2013-02-01 09:02:00,
2013-02-01 02:17:00,36.8,17.0,30.25,NW,318,0.0,0.0,44,0.00,,,0.00,0,weatherlink.com 1.10,2013-02-01 09:17:00,
2013-02-01 02:32:00,36.5,17.0,30.25,NW,318,0.0,0.0,45,0.00,,,0.00,0,weatherlink.com 1.10,2013-02-01 09:32:00,
2013-02-01 02:48:00,36.1,16.0,30.25,NW,318,0.0,0.0,45,0.00,,,0.00,0,weatherlink.com 1.10,2013-02-01 09:48:00,
2013-02-01 03:02:00,36.0,16.0,30.24,NW,318,0.0,0.0,45,0.00,,,0.00,0,weatherlink.com 1.10,2013-02-01 10:02:00,
2013-02-01 03:17:00,35.9,16.0,30.24,NW,318,0.0,0.0,45,0.00,,,0.00,0,weatherlink.com 1.10,2013-02-01 10:17:00,
2013-02-01 03:32:00,35.9,16.0,30.23,NW,318,1.0,1.0,45,0.00,,,0.00,0,weatherlink.com 1.10,2013-02-01 10:32:00,
2013-02-01 03:47:00,36.3,17.0,30.23,NW,318,0.0,1.0,45,0.00,,,0.00,0,weatherlink.com 1.10,2013-02-01 10:47:00,
2013-02-01 04:02:00,36.2,17.0,30.23,NW,318,0.0,1.0,45,0.00,,,0.00,0,weatherlink.com 1.10,2013-02-01 11:02:00,
2013-02-01 04:17:00,36.2,17.0,30.23,NW,318,0.0,1.0,45,0.00,,,0.00,0,weatherlink.com 1.10,2013-02-01 11:17:00,
2013-02-01 04:33:00,35.4,16.0,30.23,NW,318,0.0,1.0,46,0.00,,,0.00,0,weatherlink.com 1.10,2013-02-01 11:33:00,
2013-02-01 04:47:00,34.4,16.0,30.23,NW,318,0.0,1.0,47,0.00,,,0.00,0,weatherlink.com 1.10,2013-02-01 11:47:00,
2013-02-01 05:02:00,34.4,16.0,30.23,NW,318,0.0,0.0,47,0.00,,,0.00,0,weatherlink.com 1.10,2013-02-01 12:02:00,
2013-02-01 05:17:00,34.3,16.0,30.23,NW,318,0.0,0.0,48,0.00,,,0.00,0,weatherlink.com 1.10,2013-02-01 12:17:00,
2013-02-01 05:32:00,33.9,16.0,30.23,NW,318,0.0,0.0,48,0.00,,,0.00,0,weatherlink.com 1.10,2013-02-01 12:32:00,
2013-02-01 05:47:00,33.7,16.0,30.24,NW,318,0.0,0.0,48,0.00,,,0.00,0,weatherlink.com 1.10,2013-02-01 12:47:00,
2013-02-01 06:18:00,33.7,16.0,30.24,NW,318,0.0,1.0,49,0.00,,,0.00,0,weatherlink.com 1.10,2013-02-01 13:18:00,
2013-02-01 06:33:00,33.4,16.0,30.24,NW,318,0.0,1.0,49,0.00,,,0.00,0,weatherlink.com 1.10,2013-02-01 13:33:00,
2013-02-01 06:48:00,33.3,16.0,30.24,NW,318,0.0,0.0,50,0.00,,,0.00,0,weatherlink.com 1.10,2013-02-01 13:48:00,
2013-02-01 07:03:00,33.5,17.0,30.25,NW,318,0.0,1.0,50,0.00,,,0.00,7,weatherlink.com 1.10,2013-02-01 14:03:00,
2013-02-01 07:18:00,33.8,17.0,30.25,NW,318,0.0,1.0,50,0.00,,,0.00,14,weatherlink.com 1.10,2013-02-01 14:18:00,
2013-02-01 07:33:00,34.4,16.0,30.25,NW,318,0.0,2.0,48,0.00,,,0.00,39,weatherlink.com 1.10,2013-02-01 14:33:00,
2013-02-01 07:48:00,35.7,17.0,30.25,NW,318,5.0,5.0,46,0.00,,,0.00,86,weatherlink.com 1.10,2013-02-01 14:48:00,
2013-02-01 08:03:00,36.8,17.0,30.26,NW,319,0.0,2.0,44,0.00,,,0.00,139,weatherlink.com 1.10,2013-02-01 15:03:00,
2013-02-01 08:18:00,37.7,17.0,30.26,NW,318,0.0,2.0,43,0.00,,,0.00,199,weatherlink.com 1.10,2013-02-01 15:18:00,
2013-02-01 08:33:00,39.3,17.0,30.27,NW,318,0.0,2.0,41,0.00,,,0.00,258,weatherlink.com 1.10,2013-02-01 15:33:00,
2013-02-01 08:48:00,39.7,18.0,30.27,NW,318,1.0,3.0,41,0.00,,,0.00,304,weatherlink.com 1.10,2013-02-01 15:48:00,
2013-02-01 09:03:00,42.1,19.0,30.28,NW,318,0.0,2.0,39,0.00,,,0.00,348,weatherlink.com 1.10,2013-02-01 16:03:00,
2013-02-01 09:18:00,43.8,18.0,30.27,NW,319,0.0,3.0,36,0.00,,,0.00,392,weatherlink.com 1.10,2013-02-01 16:18:00,
2013-02-01 09:33:00,43.7,18.0,30.27,NW,319,1.0,4.0,36,0.00,,,0.00,431,weatherlink.com 1.10,2013-02-01 16:33:00,
2013-02-01 09:49:00,45.0,19.0,30.28,NW,321,2.0,4.0,35,0.00,,,0.00,469,weatherlink.com 1.10,2013-02-01 16:49:00,
2013-02-01 10:04:00,47.4,19.0,30.28,NW,321,1.0,2.0,33,0.00,,,0.00,506,weatherlink.com 1.10,2013-02-01 17:04:00,
2013-02-01 10:19:00,49.0,20.0,30.28,NW,321,2.0,2.0,32,0.00,,,0.00,536,weatherlink.com 1.10,2013-02-01 17:19:00,
2013-02-01 10:34:00,51.5,21.0,30.28,NW,321,0.0,1.0,30,0.00,,,0.00,568,weatherlink.com 1.10,2013-02-01 17:34:00,
2013-02-01 10:49:00,51.4,21.0,30.27,NW,321,0.0,2.0,30,0.00,,,0.00,596,weatherlink.com 1.10,2013-02-01 17:49:00,
2013-02-01 11:04:00,53.9,21.0,30.26,NW,321,0.0,2.0,28,0.00,,,0.00,617,weatherlink.com 1.10,2013-02-01 18:04:00,
2013-02-01 11:19:00,56.2,22.0,30.26,NW,321,0.0,3.0,26,0.00,,,0.00,636,weatherlink.com 1.10,2013-02-01 18:19:00,
2013-02-01 11:34:00,56.8,22.0,30.25,NW,321,0.0,2.0,26,0.00,,,0.00,650,weatherlink.com 1.10,2013-02-01 18:34:00,
2013-02-01 11:49:00,56.4,22.0,30.24,NW,321,2.0,3.0,26,0.00,,,0.00,664,weatherlink.com 1.10,2013-02-01 18:49:00,
2013-02-01 12:04:00,56.8,21.0,30.23,NW,321,0.0,2.0,25,0.00,,,0.00,671,weatherlink.com 1.10,2013-02-01 19:04:00,
2013-02-01 12:19:00,58.3,21.0,30.22,NW,321,0.0,2.0,24,0.00,,,0.00,671,weatherlink.com 1.10,2013-02-01 19:19:00,
2013-02-01 12:34:00,57.7,21.0,30.20,NW,318,0.0,3.0,24,0.00,,,0.00,668,weatherlink.com 1.10,2013-02-01 19:34:00,
2013-02-01 12:49:00,58.5,21.0,30.19,NW,314,0.0,4.0,23,0.00,,,0.00,661,weatherlink.com 1.10,2013-02-01 19:49:00,
2013-02-01 13:05:00,60.8,22.0,30.18,NW,314,1.0,3.0,22,0.00,,,0.00,643,weatherlink.com 1.10,2013-02-01 20:05:00,
2013-02-01 13:19:00,61.0,22.0,30.18,WNW,296,1.0,5.0,22,0.00,,,0.00,650,weatherlink.com 1.10,2013-02-01 20:19:00,
2013-02-01 13:34:00,61.3,21.0,30.17,WNW,284,0.0,6.0,21,0.00,,,0.00,629,weatherlink.com 1.10,2013-02-01 20:34:00,
2013-02-01 13:49:00,61.1,22.0,30.17,WSW,254,2.0,6.0,22,0.00,,,0.00,559,weatherlink.com 1.10,2013-02-01 20:49:00,
2013-02-01 14:05:00,61.7,22.0,30.16,WSW,248,2.0,5.0,22,0.00,,,0.00,571,weatherlink.com 1.10,2013-02-01 21:05:00,
2013-02-01 14:19:00,62.2,22.0,30.15,WSW,245,3.0,5.0,21,0.00,,,0.00,540,weatherlink.com 1.10,2013-02-01 21:19:00,
2013-02-01 14:35:00,62.8,22.0,30.15,WSW,246,1.0,6.0,21,0.00,,,0.00,504,weatherlink.com 1.10,2013-02-01 21:35:00,
2013-02-01 14:49:00,62.3,22.0,30.14,WSW,244,1.0,4.0,21,0.00,,,0.00,468,weatherlink.com 1.10,2013-02-01 21:49:00,
2013-02-01 15:05:00,62.6,22.0,30.14,WSW,243,1.0,5.0,21,0.00,,,0.00,425,weatherlink.com 1.10,2013-02-01 22:05:00,
2013-02-01 15:20:00,62.8,22.0,30.13,WSW,243,0.0,4.0,21,0.00,,,0.00,387,weatherlink.com 1.10,2013-02-01 22:20:00,
2013-02-01 15:35:00,62.9,22.0,30.13,WSW,243,1.0,4.0,21,0.00,,,0.00,355,weatherlink.com 1.10,2013-02-01 22:35:00,
2013-02-01 15:50:00,64.0,22.0,30.13,WSW,243,1.0,4.0,20,0.00,,,0.00,311,weatherlink.com 1.10,2013-02-01 22:50:00,
2013-02-01 16:20:00,63.5,22.0,30.14,WSW,238,3.0,6.0,20,0.00,,,0.00,216,weatherlink.com 1.10,2013-02-01 23:20:00,
2013-02-01 16:35:00,63.6,22.0,30.13,WSW,238,3.0,3.0,20,0.00,,,0.00,148,weatherlink.com 1.10,2013-02-01 23:35:00,
2013-02-01 16:50:00,63.5,22.0,30.14,WSW,238,2.0,3.0,20,0.00,,,0.00,100,weatherlink.com 1.10,2013-02-01 23:50:00,
2013-02-01 17:05:00,62.1,20.0,30.13,WSW,238,0.0,4.0,20,0.00,,,0.00,21,weatherlink.com 1.10,2013-02-02 00:05:00,
2013-02-01 17:20:00,61.1,21.0,30.13,WSW,238,0.0,4.0,21,0.00,,,0.00,14,weatherlink.com 1.10,2013-02-02 00:20:00,
2013-02-01 17:35:00,60.3,21.0,30.13,WSW,238,0.0,2.0,22,0.00,,,0.00,5,weatherlink.com 1.10,2013-02-02 00:35:00,
2013-02-01 17:50:00,59.4,20.0,30.13,WSW,238,2.0,2.0,22,0.00,,,0.00,0,weatherlink.com 1.10,2013-02-02 00:50:00,
2013-02-01 18:05:00,58.7,21.0,30.14,WSW,238,0.0,1.0,23,0.00,,,0.00,0,weatherlink.com 1.10,2013-02-02 01:05:00,
2013-02-01 18:20:00,57.6,21.0,30.14,WSW,238,0.0,0.0,24,0.00,,,0.00,0,weatherlink.com 1.10,2013-02-02 01:20:00,
2013-02-01 18:35:00,56.4,21.0,30.14,WSW,238,0.0,0.0,25,0.00,,,0.00,0,weatherlink.com 1.10,2013-02-02 01:35:00,
2013-02-01 18:50:00,55.1,21.0,30.15,WSW,238,0.0,0.0,26,0.00,,,0.00,0,weatherlink.com 1.10,2013-02-02 01:50:00,
2013-02-01 19:05:00,54.4,20.0,30.16,WSW,238,0.0,0.0,26,0.00,,,0.00,0,weatherlink.com 1.10,2013-02-02 02:05:00,
2013-02-01 19:20:00,53.9,20.0,30.16,WSW,238,0.0,0.0,27,0.00,,,0.00,0,weatherlink.com 1.10,2013-02-02 02:20:00,
2013-02-01 19:35:00,54.3,20.0,30.17,WSW,238,0.0,1.0,26,0.00,,,0.00,0,weatherlink.com 1.10,2013-02-02 02:35:00,
2013-02-01 19:50:00,54.8,20.0,30.17,WSW,238,0.0,1.0,26,0.00,,,0.00,0,weatherlink.com 1.10,2013-02-02 02:50:00,
2013-02-01 20:05:00,53.7,20.0,30.18,WSW,238,0.0,0.0,27,0.00,,,0.00,0,weatherlink.com 1.10,2013-02-02 03:05:00,
2013-02-01 20:20:00,53.1,20.0,30.18,WSW,238,0.0,1.0,27,0.00,,,0.00,0,weatherlink.com 1.10,2013-02-02 03:20:00,
2013-02-01 20:35:00,52.8,20.0,30.18,WSW,238,0.0,0.0,28,0.00,,,0.00,0,weatherlink.com 1.10,2013-02-02 03:35:00,
2013-02-01 20:50:00,52.1,20.0,30.18,WSW,238,0.0,0.0,28,0.00,,,0.00,0,weatherlink.com 1.10,2013-02-02 03:50:00,
2013-02-01 21:05:00,51.3,20.0,30.18,WSW,238,0.0,0.0,29,0.00,,,0.00,0,weatherlink.com 1.10,2013-02-02 04:05:00,
2013-02-01 21:20:00,50.6,20.0,30.18,WSW,238,0.0,0.0,30,0.00,,,0.00,0,weatherlink.com 1.10,2013-02-02 04:20:00,
2013-02-01 21:50:00,50.5,20.0,30.19,WSW,238,0.0,0.0,30,0.00,,,0.00,0,weatherlink.com 1.10,2013-02-02 04:50:00,
2013-02-01 22:05:00,50.4,19.0,30.19,WSW,238,0.0,0.0,29,0.00,,,0.00,0,weatherlink.com 1.10,2013-02-02 05:05:00,
2013-02-01 22:20:00,48.5,18.0,30.20,WSW,238,0.0,1.0,30,0.00,,,0.00,0,weatherlink.com 1.10,2013-02-02 05:20:00,
2013-02-01 22:35:00,47.2,18.0,30.20,WSW,238,0.0,1.0,31,0.00,,,0.00,0,weatherlink.com 1.10,2013-02-02 05:35:00,
2013-02-01 22:50:00,47.2,19.0,30.20,WSW,238,0.0,1.0,32,0.00,,,0.00,0,weatherlink.com 1.10,2013-02-02 05:50:00,
2013-02-01 23:05:00,47.4,19.0,30.20,WSW,238,0.0,0.0,32,0.00,,,0.00,0,weatherlink.com 1.10,2013-02-02 06:05:00,
2013-02-01 23:20:00,46.0,17.0,30.20,WSW,238,0.0,0.0,32,0.00,,,0.00,0,weatherlink.com 1.10,2013-02-02 06:20:00,
2013-02-01 23:35:00,44.9,17.0,30.20,WSW,238,0.0,0.0,33,0.00,,,0.00,0,weatherlink.com 1.10,2013-02-02 06:35:00,
2013-02-01 23:50:00,44.4,17.0,30.21,WSW,238,0.0,1.0,34,0.00,,,0.00,0,weatherlink.com 1.10,2013-02-02 06:50:00,